Stevens Point, Wisconsin
Current Conditions -  °F | °C
As of 4:55 PM on Saturday 20 Dec 2014 (Local Time) from KSTE Reporting Station
Overcast Overcast  
Wind Chill: 28°   Ceiling: 2600
Heat Index: 28°   Visibility: 10mi
Dew Point: 24°   Wind: 3mph
Humidity: 86%   Direction: 150°SSE
Pressure: 30.19"   Gusts: NA
Location:  44.52°N, 89.57°W
Report Text: KSTE 202255Z AUTO 15003KT 10SM SCT018 OVC026 M02/M04 A3019 RMK AO2 T10211042
Loading
Personal Weather Stations






























Interactive Weather Map New forecast layout! Learn more

10-Day Weather Forecast

Advertisements
Track Severe Weather on mobile